createdAt,value
2018-11-05T00:00:46.591Z,35.85
2018-11-05T00:03:22.243Z,38.45
2018-11-05T00:05:57.705Z,39.85
2018-11-05T00:08:33.219Z,39.58
2018-11-05T00:11:08.815Z,37.67
2018-11-05T00:13:44.238Z,36.58
2018-11-05T00:16:19.761Z,36.70
2018-11-05T00:18:55.081Z,38.15
2018-11-05T00:21:30.594Z,38.53
2018-11-05T00:24:06.393Z,38.15
2018-11-05T00:26:42.045Z,37.65
2018-11-05T00:29:17.484Z,36.20
2018-11-05T00:31:53.054Z,38.95
2018-11-05T00:34:29.231Z,37.73
2018-11-05T00:37:04.861Z,38.85
2018-11-05T00:39:40.639Z,38.42
2018-11-05T00:42:16.078Z,38.00
2018-11-05T00:44:51.483Z,38.35
2018-11-05T00:47:26.964Z,35.43
2018-11-05T00:50:02.262Z,36.77
2018-11-05T00:52:37.832Z,37.70
2018-11-05T00:55:13.687Z,35.63
2018-11-05T00:57:49.952Z,38.30
2018-11-05T01:00:25.378Z,39.55
2018-11-05T01:03:00.784Z,37.95
2018-11-05T01:05:36.344Z,37.38
2018-11-05T01:08:11.964Z,38.65
2018-11-05T01:10:47.343Z,39.45
2018-11-05T01:13:22.807Z,35.50
2018-11-05T01:15:58.175Z,37.63
2018-11-05T01:18:33.814Z,36.70
2018-11-05T01:21:09.380Z,38.05
2018-11-05T01:23:44.864Z,38.33
2018-11-05T01:26:20.412Z,38.33
2018-11-05T01:28:55.842Z,38.90
2018-11-05T01:31:31.457Z,38.48
2018-11-05T01:34:06.925Z,39.65
2018-11-05T01:36:42.329Z,40.58
2018-11-05T01:39:17.772Z,41.60
2018-11-05T01:41:53.292Z,39.48
2018-11-05T01:44:28.914Z,39.03
2018-11-05T01:47:04.501Z,40.30
2018-11-05T01:49:40.015Z,40.55
2018-11-05T01:52:15.361Z,37.13
2018-11-05T01:54:50.721Z,39.35
2018-11-05T01:57:26.205Z,38.58
2018-11-05T02:00:01.730Z,39.75
2018-11-05T02:02:37.382Z,37.60
2018-11-05T02:05:12.927Z,40.17
2018-11-05T02:07:48.466Z,40.83
2018-11-05T02:10:23.795Z,40.10
2018-11-05T02:12:59.241Z,37.53
2018-11-05T02:15:34.897Z,38.35
2018-11-05T02:18:10.333Z,37.05
2018-11-05T02:20:45.758Z,40.28
2018-11-05T02:23:21.113Z,41.40
2018-11-05T02:25:56.884Z,40.15
2018-11-05T02:28:32.311Z,40.08
2018-11-05T02:31:07.763Z,41.13
2018-11-05T02:33:43.224Z,43.45
2018-11-05T02:36:18.744Z,37.53
2018-11-05T02:38:54.315Z,39.92
2018-11-05T02:41:29.712Z,39.27
2018-11-05T02:44:05.572Z,39.58
2018-11-05T02:46:41.055Z,41.42
2018-11-05T02:49:16.650Z,40.52
2018-11-05T02:51:52.307Z,42.38
2018-11-05T02:54:27.732Z,39.85
2018-11-05T02:57:03.411Z,40.48
2018-11-05T02:59:38.741Z,41.88
2018-11-05T03:02:14.013Z,39.38
2018-11-05T03:04:49.143Z,43.40
2018-11-05T03:07:24.486Z,39.42
2018-11-05T03:09:59.813Z,40.45
2018-11-05T03:12:35.161Z,40.92
2018-11-05T03:15:12.328Z,42.50
2018-11-05T03:17:47.904Z,41.98
2018-11-05T03:20:23.068Z,42.05
2018-11-05T03:22:58.292Z,39.90
2018-11-05T03:25:33.881Z,43.90
2018-11-05T03:28:09.285Z,41.13
2018-11-05T03:30:44.707Z,44.42
2018-11-05T03:33:20.056Z,44.25
2018-11-05T03:35:55.399Z,44.08
2018-11-05T03:38:30.705Z,44.25
2018-11-05T03:41:06.665Z,41.50
2018-11-05T03:43:42.244Z,42.43
2018-11-05T03:46:17.675Z,42.45
2018-11-05T03:48:53.025Z,41.53
2018-11-05T03:51:28.623Z,41.33
2018-11-05T03:54:04.304Z,43.40
2018-11-05T03:56:39.671Z,40.85
2018-11-05T03:59:15.275Z,41.73
2018-11-05T04:01:50.742Z,40.40
2018-11-05T04:04:26.295Z,40.92
2018-11-05T04:07:01.744Z,38.60
2018-11-05T04:09:36.955Z,40.48
2018-11-05T04:12:12.515Z,38.70
2018-11-05T04:14:48.161Z,41.15
2018-11-05T04:17:23.632Z,39.85
2018-11-05T04:19:58.985Z,39.33
2018-11-05T04:22:34.365Z,41.15
2018-11-05T04:25:09.841Z,40.48
2018-11-05T04:27:45.346Z,40.63
2018-11-05T04:30:20.624Z,38.90
2018-11-05T04:32:56.068Z,38.28
2018-11-05T04:35:31.423Z,41.10
2018-11-05T04:38:06.903Z,37.67
2018-11-05T04:40:42.205Z,42.03
2018-11-05T04:43:17.701Z,38.95
2018-11-05T04:45:53.063Z,39.67
2018-11-05T04:48:28.285Z,39.20
2018-11-05T04:51:03.765Z,38.48
2018-11-05T04:53:39.446Z,39.95
2018-11-05T04:56:14.835Z,42.30
2018-11-05T04:58:50.033Z,40.95
2018-11-05T05:01:25.441Z,40.75
2018-11-05T05:04:00.561Z,41.98
2018-11-05T05:06:35.812Z,38.80
2018-11-05T05:12:54.708Z,37.67
2018-11-05T05:15:30.228Z,39.78
2018-11-05T05:18:05.781Z,42.25
2018-11-05T05:20:41.342Z,40.12
2018-11-05T05:23:16.885Z,40.70
2018-11-05T05:25:52.193Z,38.70
2018-11-05T05:28:27.431Z,40.20
2018-11-05T05:31:02.874Z,44.30
2018-11-05T05:33:38.414Z,40.55
2018-11-05T05:36:13.955Z,38.17
2018-11-05T05:38:49.865Z,38.70
2018-11-05T05:41:25.401Z,39.78
2018-11-05T05:44:00.934Z,39.40
2018-11-05T05:46:36.466Z,38.45
2018-11-05T05:49:11.787Z,41.23
2018-11-05T05:51:47.154Z,39.45
2018-11-05T05:54:22.642Z,37.73
2018-11-05T05:56:58.039Z,38.98
2018-11-05T05:59:33.546Z,37.55
2018-11-05T06:02:09.051Z,39.42
2018-11-05T06:04:44.715Z,37.03
2018-11-05T06:07:19.991Z,37.17
2018-11-05T06:09:55.448Z,37.17
2018-11-05T06:12:30.834Z,38.17
2018-11-05T06:15:07.603Z,38.02
2018-11-05T06:17:42.883Z,37.90
2018-11-05T06:20:19.406Z,34.58
2018-11-05T06:22:54.948Z,38.13
2018-11-05T06:25:30.389Z,36.33
2018-11-05T06:28:06.026Z,34.05
2018-11-05T06:30:41.392Z,35.48
2018-11-05T06:33:17.753Z,37.70
2018-11-05T06:35:53.104Z,36.25
2018-11-05T06:38:28.492Z,35.55
2018-11-05T06:41:03.973Z,39.27
2018-11-05T06:43:39.445Z,35.85
2018-11-05T06:46:15.168Z,36.25
2018-11-05T06:48:50.627Z,37.30
2018-11-05T06:51:26.141Z,36.30
2018-11-05T06:54:01.672Z,36.13
2018-11-05T06:56:37.273Z,33.80
2018-11-05T06:59:12.592Z,35.95
2018-11-05T07:01:48.305Z,36.00
2018-11-05T07:04:24.014Z,34.00
2018-11-05T07:06:59.438Z,33.42
2018-11-05T07:09:34.720Z,35.48
2018-11-05T07:12:10.625Z,34.95
2018-11-05T07:14:45.965Z,35.83
2018-11-05T07:17:21.333Z,33.42
2018-11-05T07:19:57.082Z,35.63
2018-11-05T07:22:32.634Z,33.02
2018-11-05T07:25:09.655Z,34.10
2018-11-05T07:27:45.221Z,31.37
2018-11-05T07:30:22.624Z,34.33
2018-11-05T07:32:58.008Z,32.95
2018-11-05T07:35:33.503Z,32.30
2018-11-05T07:38:08.900Z,31.55
2018-11-05T07:40:44.534Z,28.50
2018-11-05T07:43:22.682Z,33.30
2018-11-05T07:45:58.124Z,31.82
2018-11-05T07:48:33.622Z,30.15
2018-11-05T07:51:09.035Z,30.23
2018-11-05T07:53:44.401Z,32.95
2018-11-05T07:56:20.072Z,30.65
2018-11-05T07:58:55.594Z,31.48
2018-11-05T08:01:30.989Z,33.75
2018-11-05T08:04:06.277Z,27.87
2018-11-05T08:06:41.847Z,32.17
2018-11-05T08:09:17.461Z,33.83
2018-11-05T08:11:53.063Z,32.10
2018-11-05T08:14:28.517Z,30.70
2018-11-05T08:17:03.996Z,32.05
2018-11-05T08:19:39.123Z,28.75
2018-11-05T08:22:14.414Z,34.15
2018-11-05T08:24:49.674Z,33.42
2018-11-05T08:27:24.833Z,34.25
2018-11-05T08:30:03.031Z,35.55
2018-11-05T08:32:38.254Z,31.85
2018-11-05T08:35:13.967Z,34.58
2018-11-05T08:37:49.842Z,35.83
2018-11-05T08:40:26.988Z,33.42
2018-11-05T08:43:02.301Z,31.30
2018-11-05T08:45:37.583Z,30.37
2018-11-05T08:48:13.014Z,29.80
2018-11-05T08:50:48.421Z,31.20
2018-11-05T08:53:23.630Z,28.50
2018-11-05T08:55:58.875Z,29.07
2018-11-05T08:58:34.463Z,29.72
2018-11-05T09:01:15.086Z,30.00
2018-11-05T09:03:50.908Z,27.32
2018-11-05T09:06:26.207Z,28.45
2018-11-05T09:09:01.744Z,27.67
2018-11-05T09:11:37.731Z,29.57
2018-11-05T09:14:13.050Z,27.37
2018-11-05T09:16:48.406Z,27.55
2018-11-05T09:19:23.821Z,26.45
2018-11-05T09:21:59.323Z,29.00
2018-11-05T09:24:34.745Z,27.05
2018-11-05T09:27:09.961Z,31.12
2018-11-05T09:29:45.294Z,28.73
2018-11-05T09:32:20.565Z,27.42
2018-11-05T09:34:55.875Z,28.38
2018-11-05T09:37:31.130Z,27.02
2018-11-05T09:40:08.311Z,26.97
2018-11-05T09:42:44.296Z,27.75
2018-11-05T09:45:21.413Z,29.45
2018-11-05T09:47:57.023Z,26.65
2018-11-05T09:50:32.514Z,26.85
2018-11-05T09:53:07.991Z,25.75
2018-11-05T09:55:43.344Z,27.85
2018-11-05T09:58:18.881Z,26.90
2018-11-05T10:00:54.213Z,28.52
2018-11-05T10:04:06.809Z,27.67
2018-11-05T10:06:41.850Z,28.98
2018-11-05T10:09:17.551Z,27.07
2018-11-05T10:11:52.784Z,26.80
2018-11-05T10:14:27.891Z,29.37
2018-11-05T10:17:03.063Z,27.15
2018-11-05T10:19:38.491Z,26.07
2018-11-05T10:22:14.054Z,27.60
2018-11-05T10:24:49.565Z,29.02
2018-11-05T10:27:24.874Z,27.17
2018-11-05T10:30:00.104Z,28.85
2018-11-05T10:32:35.583Z,26.20
2018-11-05T10:35:11.400Z,28.00
2018-11-05T10:37:46.619Z,27.98
2018-11-05T10:40:22.091Z,28.32
2018-11-05T10:42:57.522Z,25.90
2018-11-05T10:45:32.872Z,28.20
2018-11-05T10:48:08.264Z,27.75
2018-11-05T10:50:43.549Z,29.10
2018-11-05T10:53:18.673Z,29.67
2018-11-05T10:55:53.793Z,26.50
2018-11-05T10:58:29.195Z,27.90
2018-11-05T11:01:09.861Z,26.97
2018-11-05T11:03:50.507Z,28.47
2018-11-05T11:06:25.957Z,27.32
2018-11-05T11:09:01.192Z,27.13
2018-11-05T11:11:36.503Z,27.95
2018-11-05T11:14:11.825Z,30.32
2018-11-05T11:16:47.282Z,29.18
2018-11-05T11:19:22.714Z,27.93
2018-11-05T11:21:58.063Z,28.10
2018-11-05T11:24:33.401Z,27.77
2018-11-05T11:27:08.835Z,29.67
2018-11-05T11:29:44.376Z,30.30
2018-11-05T11:32:20.604Z,30.92
2018-11-05T11:34:56.041Z,32.17
2018-11-05T11:37:31.802Z,31.75
2018-11-05T11:40:15.682Z,30.35
2018-11-05T11:42:51.743Z,31.45
2018-11-05T11:45:28.863Z,29.15
2018-11-05T11:48:05.275Z,30.10
2018-11-05T11:50:40.375Z,32.78
2018-11-05T11:53:16.596Z,32.05
2018-11-05T11:55:52.145Z,30.40
2018-11-05T11:58:28.915Z,31.15
2018-11-05T12:01:04.504Z,29.40
2018-11-05T12:03:40.876Z,28.40
2018-11-05T12:06:17.670Z,29.12
2018-11-05T12:08:53.167Z,30.32
2018-11-05T12:11:29.603Z,31.00
2018-11-05T12:14:05.333Z,30.40
2018-11-05T12:16:41.034Z,30.97
2018-11-05T12:19:17.045Z,29.60
2018-11-05T12:21:52.535Z,29.35
2018-11-05T12:24:28.442Z,30.25
2018-11-05T12:27:03.943Z,28.60
2018-11-05T12:29:40.825Z,29.57
2018-11-05T12:32:16.196Z,31.02
2018-11-05T12:34:51.553Z,29.25
2018-11-05T12:37:27.106Z,35.35
2018-11-05T12:40:02.709Z,29.23
2018-11-05T12:42:38.320Z,32.25
2018-11-05T12:45:13.885Z,27.67
2018-11-05T12:47:49.614Z,27.82
2018-11-05T12:50:25.037Z,27.25
2018-11-05T12:53:00.439Z,29.67
2018-11-05T12:55:36.014Z,27.87
2018-11-05T12:58:11.584Z,29.70
2018-11-05T13:00:47.133Z,32.33
2018-11-05T13:03:22.783Z,31.23
2018-11-05T13:05:59.263Z,27.95
2018-11-05T13:08:35.723Z,29.27
2018-11-05T13:11:13.227Z,30.27
2018-11-05T13:13:50.510Z,29.37
2018-11-05T13:16:28.760Z,27.35
2018-11-05T13:19:04.313Z,29.25
2018-11-05T13:21:40.142Z,28.92
2018-11-05T13:24:15.547Z,30.08
2018-11-05T13:26:51.123Z,29.90
2018-11-05T13:29:26.515Z,31.25
2018-11-05T13:32:01.918Z,30.70
2018-11-05T13:34:38.591Z,29.82
2018-11-05T13:37:14.320Z,34.00
2018-11-05T13:39:51.792Z,31.55
2018-11-05T13:42:27.766Z,30.12
2018-11-05T13:45:03.586Z,30.95
2018-11-05T13:47:39.519Z,33.95
2018-11-05T13:50:15.380Z,33.18
2018-11-05T13:52:51.254Z,31.23
2018-11-05T13:55:27.725Z,30.88
2018-11-05T13:58:04.847Z,31.15
2018-11-05T14:00:40.413Z,34.92
2018-11-05T14:03:16.665Z,33.85
2018-11-05T14:05:52.654Z,30.25
2018-11-05T14:08:28.043Z,30.45
2018-11-05T14:11:04.941Z,31.15
2018-11-05T14:13:41.921Z,31.77
2018-11-05T14:16:19.895Z,31.02
2018-11-05T14:18:55.351Z,33.20
2018-11-05T14:21:30.746Z,34.43
2018-11-05T14:24:06.846Z,33.65
2018-11-05T14:26:42.807Z,36.60
2018-11-05T14:29:20.218Z,35.58
2018-11-05T14:31:54.993Z,35.38
2018-11-05T14:34:30.169Z,35.48
2018-11-05T14:37:05.845Z,31.55
2018-11-05T14:39:41.327Z,32.95
2018-11-05T14:42:16.561Z,30.95
2018-11-05T14:44:52.197Z,31.85
2018-11-05T14:47:27.643Z,32.42
2018-11-05T14:50:03.094Z,31.68
2018-11-05T14:52:38.499Z,33.78
2018-11-05T14:55:15.569Z,32.00
2018-11-05T14:57:51.789Z,34.63
2018-11-05T15:00:28.185Z,32.33
2018-11-05T15:03:03.820Z,34.35
2018-11-05T15:05:39.231Z,32.48
2018-11-05T15:08:14.685Z,31.10
2018-11-05T15:10:50.085Z,33.60
2018-11-05T15:13:25.547Z,29.80
2018-11-05T15:16:00.797Z,32.35
2018-11-05T15:18:36.491Z,33.40
2018-11-05T15:21:11.869Z,33.53
2018-11-05T15:23:47.024Z,33.42
2018-11-05T15:26:22.482Z,33.28
2018-11-05T15:28:57.816Z,33.58
2018-11-05T15:31:33.391Z,33.65
2018-11-05T15:34:08.772Z,33.18
2018-11-05T15:36:43.972Z,37.08
2018-11-05T15:39:19.264Z,33.53
2018-11-05T15:41:54.614Z,34.78
2018-11-05T15:44:29.985Z,36.00
2018-11-05T15:47:05.581Z,35.08
2018-11-05T15:49:41.034Z,35.55
2018-11-05T15:52:16.719Z,33.55
2018-11-05T15:54:51.612Z,29.63
2018-11-05T15:57:26.961Z,35.13
2018-11-05T16:00:02.794Z,32.60
2018-11-05T16:02:38.536Z,33.75
2018-11-05T16:05:13.807Z,30.65
2018-11-05T16:07:49.186Z,32.15
2018-11-05T16:10:24.750Z,33.28
2018-11-05T16:13:00.475Z,31.00
2018-11-05T16:15:35.972Z,33.25
2018-11-05T16:18:11.339Z,32.60
2018-11-05T16:20:46.817Z,33.45
2018-11-05T16:23:22.446Z,32.88
2018-11-05T16:25:58.075Z,31.57
2018-11-05T16:28:33.404Z,32.78
2018-11-05T16:31:08.887Z,31.45
2018-11-05T16:33:44.420Z,28.47
2018-11-05T16:36:19.759Z,30.68
2018-11-05T16:38:55.054Z,34.80
2018-11-05T16:41:30.366Z,32.40
2018-11-05T16:44:06.012Z,32.60
2018-11-05T16:46:41.675Z,31.95
2018-11-05T16:49:16.865Z,31.87
2018-11-05T16:51:52.093Z,28.98
2018-11-05T16:54:27.495Z,31.80
2018-11-05T16:57:02.915Z,29.30
2018-11-05T16:59:38.656Z,28.07
2018-11-05T17:02:15.567Z,28.98
2018-11-05T17:04:50.898Z,28.92
2018-11-05T17:07:26.455Z,28.87
2018-11-05T17:10:01.963Z,29.60
2018-11-05T17:12:37.325Z,28.60
2018-11-05T17:15:14.064Z,29.12
2018-11-05T17:17:49.445Z,28.73
2018-11-05T17:20:24.986Z,28.85
2018-11-05T17:23:00.512Z,28.25
2018-11-05T17:25:36.088Z,25.68
2018-11-05T17:28:11.397Z,26.97
2018-11-05T17:30:46.735Z,27.75
2018-11-05T17:33:21.838Z,24.80
2018-11-05T17:35:57.212Z,26.23
2018-11-05T17:38:32.624Z,27.87
2018-11-05T17:41:08.024Z,28.92
2018-11-05T17:43:43.301Z,28.77
2018-11-05T17:46:18.385Z,27.32
2018-11-05T17:48:53.515Z,29.35
2018-11-05T17:51:28.852Z,28.30
2018-11-05T17:54:04.186Z,28.42
2018-11-05T17:56:39.772Z,28.27
2018-11-05T17:59:15.264Z,28.55
2018-11-05T18:01:50.668Z,29.48
2018-11-05T18:04:25.782Z,30.90
2018-11-05T18:07:01.236Z,30.80
2018-11-05T18:09:36.687Z,31.37
2018-11-05T18:12:12.254Z,32.00
2018-11-05T18:14:47.660Z,33.60
2018-11-05T18:17:24.772Z,32.45
2018-11-05T18:20:00.241Z,34.60
2018-11-05T18:22:35.741Z,33.18
2018-11-05T18:25:12.707Z,36.00
2018-11-05T18:27:48.185Z,33.38
2018-11-05T18:30:23.588Z,32.78
2018-11-05T18:32:59.182Z,33.92
2018-11-05T18:35:34.478Z,38.80
2018-11-05T18:38:10.044Z,37.95
2018-11-05T18:40:45.371Z,36.55
2018-11-05T18:43:20.716Z,41.02
2018-11-05T18:45:56.025Z,40.65
2018-11-05T18:48:31.505Z,39.48
2018-11-05T18:51:06.820Z,39.92
2018-11-05T18:53:42.443Z,41.98
2018-11-05T18:56:17.933Z,41.42
2018-11-05T18:58:53.201Z,41.35
2018-11-05T19:01:28.730Z,43.95
2018-11-05T19:04:04.284Z,40.95
2018-11-05T19:06:39.623Z,42.23
2018-11-05T19:09:15.159Z,44.98
2018-11-05T19:11:50.413Z,44.20
2018-11-05T19:14:25.861Z,46.23
2018-11-05T19:17:01.185Z,46.02
2018-11-05T19:19:36.431Z,43.55
2018-11-05T19:22:11.827Z,46.18
2018-11-05T19:24:49.665Z,43.60
2018-11-05T19:27:25.172Z,43.83
2018-11-05T19:30:00.991Z,45.75
2018-11-05T19:32:36.242Z,44.65
2018-11-05T19:35:12.364Z,44.08
2018-11-05T19:37:47.579Z,44.67
2018-11-05T19:40:23.126Z,46.05
2018-11-05T19:42:58.870Z,46.77
2018-11-05T19:45:34.464Z,48.87
2018-11-05T19:48:09.997Z,45.00
2018-11-05T19:50:45.656Z,44.77
2018-11-05T19:53:21.131Z,45.17
2018-11-05T19:55:56.634Z,47.25
2018-11-05T19:58:31.881Z,46.25
2018-11-05T20:01:07.775Z,42.48
2018-11-05T20:03:43.416Z,45.83
2018-11-05T20:06:18.982Z,43.80
2018-11-05T20:08:54.194Z,44.40
2018-11-05T20:11:29.806Z,45.00
2018-11-05T20:14:05.325Z,44.63
2018-11-05T20:16:40.717Z,47.88
2018-11-05T20:19:16.141Z,45.03
2018-11-05T20:21:51.986Z,44.45
2018-11-05T20:24:27.522Z,44.13
2018-11-05T20:27:02.796Z,49.10
2018-11-05T20:29:38.236Z,44.67
2018-11-05T20:32:13.985Z,48.50
2018-11-05T20:34:49.082Z,47.15
2018-11-05T20:37:24.526Z,48.15
2018-11-05T20:40:00.231Z,48.20
2018-11-05T20:42:35.595Z,45.08
2018-11-05T20:45:11.126Z,47.33
2018-11-05T20:47:46.702Z,50.38
2018-11-05T20:50:22.136Z,45.55
2018-11-05T20:52:57.622Z,44.33
2018-11-05T20:55:33.184Z,48.45
2018-11-05T20:58:08.582Z,47.23
2018-11-05T21:00:43.930Z,48.02
2018-11-05T21:03:19.562Z,50.35
2018-11-05T21:05:54.871Z,50.15
2018-11-05T21:08:30.339Z,45.52
2018-11-05T21:11:06.007Z,46.90
2018-11-05T21:13:41.862Z,48.80
2018-11-05T21:16:17.563Z,48.85
2018-11-05T21:18:53.377Z,50.15
2018-11-05T21:21:28.902Z,47.67
2018-11-05T21:24:04.215Z,45.30
2018-11-05T21:26:39.729Z,48.17
2018-11-05T21:29:15.124Z,47.60
2018-11-05T21:31:50.567Z,49.58
2018-11-05T21:34:25.966Z,49.63
2018-11-05T21:37:01.406Z,51.37
2018-11-05T21:39:36.880Z,45.33
2018-11-05T21:42:12.102Z,47.75
2018-11-05T21:44:47.784Z,46.65
2018-11-05T21:47:23.149Z,50.38
2018-11-05T21:49:58.312Z,49.95
2018-11-05T21:52:33.682Z,49.27
2018-11-05T21:55:09.323Z,48.28
2018-11-05T21:57:45.948Z,47.20
2018-11-05T22:00:23.361Z,47.38
2018-11-05T22:03:00.040Z,47.60
2018-11-05T22:05:35.557Z,47.38
2018-11-05T22:08:10.875Z,46.55
2018-11-05T22:10:46.346Z,49.23
2018-11-05T22:13:21.773Z,46.80
2018-11-05T22:15:57.295Z,46.50
2018-11-05T22:18:34.169Z,44.65
2018-11-05T22:21:09.676Z,46.63
2018-11-05T22:23:45.074Z,44.55
2018-11-05T22:26:20.780Z,45.00
2018-11-05T22:28:56.763Z,48.42
2018-11-05T22:31:32.245Z,47.27
2018-11-05T22:34:12.205Z,48.80
2018-11-05T22:36:47.765Z,50.65
2018-11-05T22:39:23.202Z,51.25
2018-11-05T22:41:58.954Z,48.83
2018-11-05T22:44:34.579Z,51.13
2018-11-05T22:47:10.045Z,50.58
2018-11-05T22:49:45.667Z,49.75
2018-11-05T22:52:21.091Z,53.52
2018-11-05T22:54:56.515Z,51.65
2018-11-05T22:57:31.923Z,49.63
2018-11-05T23:00:18.317Z,49.13
2018-11-05T23:02:58.857Z,51.45
2018-11-05T23:05:34.381Z,48.50
2018-11-05T23:08:09.880Z,51.42
2018-11-05T23:10:45.314Z,49.03
2018-11-05T23:13:20.741Z,50.15
2018-11-05T23:15:56.224Z,51.53
2018-11-05T23:18:31.645Z,49.95
2018-11-05T23:21:07.031Z,50.05
2018-11-05T23:23:42.444Z,50.80
2018-11-05T23:26:17.874Z,53.30
2018-11-05T23:28:53.184Z,52.48
2018-11-05T23:31:28.701Z,51.33
2018-11-05T23:34:04.351Z,54.70
2018-11-05T23:36:39.782Z,53.33
2018-11-05T23:39:15.080Z,50.50
2018-11-05T23:41:51.053Z,52.23
2018-11-05T23:44:26.595Z,54.53
2018-11-05T23:47:02.123Z,53.05
2018-11-05T23:49:37.841Z,49.00
2018-11-05T23:52:13.155Z,50.83
2018-11-05T23:54:48.450Z,51.48
2018-11-05T23:57:23.845Z,51.18
2018-11-05T23:59:59.161Z,50.43
